createdAt,value
2017-04-04T00:00:01.076Z,10.7
2017-04-04T00:00:05.864Z,10.73
2017-04-04T00:00:10.174Z,10.84
2017-04-04T00:00:14.485Z,10.7
2017-04-04T00:00:18.906Z,10.76
2017-04-04T00:00:23.333Z,10.68
2017-04-04T00:00:27.762Z,10.68
2017-04-04T00:00:32.184Z,10.7
2017-04-04T00:00:36.606Z,10.8
2017-04-04T00:00:41.032Z,10.78
2017-04-04T00:00:45.474Z,10.73
2017-04-04T00:00:49.900Z,10.76
2017-04-04T00:00:54.336Z,10.72
2017-04-04T00:00:58.762Z,10.81
2017-04-04T00:01:03.429Z,10.76
2017-04-04T00:01:07.851Z,10.76
2017-04-04T00:01:12.280Z,10.69
2017-04-04T00:01:16.588Z,10.7
2017-04-04T00:01:20.896Z,10.84
2017-04-04T00:01:25.319Z,10.76
2017-04-04T00:01:29.746Z,10.84
2017-04-04T00:01:34.177Z,10.78
2017-04-04T00:01:38.601Z,10.76
2017-04-04T00:01:42.914Z,10.75
2017-04-04T00:01:47.343Z,10.84
2017-04-04T00:01:51.574Z,10.73
2017-04-04T00:01:56.013Z,10.84
2017-04-04T00:02:00.436Z,10.78
2017-04-04T00:02:04.688Z,10.84
2017-04-04T00:02:09.117Z,10.75
2017-04-04T00:02:13.427Z,10.7
2017-04-04T00:02:17.626Z,10.78
2017-04-04T00:02:22.064Z,10.75
2017-04-04T00:02:26.486Z,10.81
2017-04-04T00:02:30.909Z,10.75
2017-04-04T00:02:35.328Z,10.72
2017-04-04T00:02:39.756Z,10.72
2017-04-04T00:02:44.061Z,10.78
2017-04-04T00:02:48.492Z,10.75
2017-04-04T00:02:52.678Z,10.76
2017-04-04T00:02:57.107Z,10.76
2017-04-04T00:03:01.533Z,10.78
2017-04-04T00:03:05.958Z,10.73
2017-04-04T00:03:10.395Z,10.87
2017-04-04T00:03:14.704Z,10.84
2017-04-04T00:03:19.017Z,10.81
2017-04-04T00:03:23.332Z,10.81
2017-04-04T00:03:27.755Z,10.75
2017-04-04T00:03:32.181Z,10.7
2017-04-04T00:03:36.608Z,10.84
2017-04-04T00:03:41.035Z,10.73
2017-04-04T00:03:45.348Z,10.68
2017-04-04T00:03:49.773Z,10.78
2017-04-04T00:03:54.205Z,10.75
2017-04-04T00:03:58.633Z,10.7
2017-04-04T00:04:03.208Z,10.73
2017-04-04T00:04:07.631Z,10.7
2017-04-04T00:04:11.934Z,10.84
2017-04-04T00:04:16.244Z,10.78
2017-04-04T00:04:20.674Z,10.7
2017-04-04T00:04:25.097Z,10.68
2017-04-04T00:04:29.520Z,10.69
2017-04-04T00:04:33.994Z,10.76
2017-04-04T00:04:38.307Z,10.7
2017-04-04T00:04:42.737Z,10.7
2017-04-04T00:04:47.164Z,10.78
2017-04-04T00:04:51.596Z,10.75
2017-04-04T00:04:56.021Z,10.76
2017-04-04T00:05:00.453Z,10.73
2017-04-04T00:05:05.015Z,10.84
2017-04-04T00:05:09.439Z,10.73
2017-04-04T00:05:13.873Z,10.76
2017-04-04T00:05:18.304Z,10.78
2017-04-04T00:05:22.659Z,10.78
2017-04-04T00:05:26.969Z,10.7
2017-04-04T00:05:31.159Z,10.83
2017-04-04T00:05:35.475Z,10.76
2017-04-04T00:05:39.902Z,10.84
2017-04-04T00:05:44.216Z,10.75
2017-04-04T00:05:48.305Z,10.78
2017-04-04T00:05:52.761Z,10.8
2017-04-04T00:05:57.195Z,10.76
2017-04-04T00:06:01.757Z,10.73
2017-04-04T00:06:05.834Z,10.75
2017-04-04T00:06:10.157Z,10.78
2017-04-04T00:06:14.472Z,10.75
2017-04-04T00:06:18.898Z,10.69
2017-04-04T00:06:23.208Z,10.84
2017-04-04T00:06:27.662Z,10.73
2017-04-04T00:06:32.092Z,10.73
2017-04-04T00:06:36.411Z,10.8
2017-04-04T00:06:40.607Z,10.84
2017-04-04T00:06:44.813Z,10.76
2017-04-04T00:06:49.125Z,10.76
2017-04-04T00:06:53.432Z,10.84
2017-04-04T00:06:57.871Z,10.68
2017-04-04T00:07:02.538Z,10.7
2017-04-04T00:07:06.732Z,10.76
2017-04-04T00:07:11.164Z,10.72
2017-04-04T00:07:15.476Z,10.7
2017-04-04T00:07:19.673Z,10.7
2017-04-04T00:07:23.996Z,10.84
2017-04-04T00:07:28.309Z,10.81
2017-04-04T00:07:32.624Z,10.84
2017-04-04T00:07:36.946Z,10.8
2017-04-04T00:07:41.136Z,10.73
2017-04-04T00:07:45.458Z,10.81
2017-04-04T00:07:49.887Z,10.68
2017-04-04T00:07:54.205Z,10.73
2017-04-04T00:07:58.633Z,10.76
2017-04-04T00:08:03.103Z,10.7
2017-04-04T00:08:07.543Z,10.8
2017-04-04T00:08:11.976Z,10.7
2017-04-04T00:08:16.406Z,10.73
2017-04-04T00:08:20.726Z,10.75
2017-04-04T00:08:25.149Z,10.7
2017-04-04T00:08:29.581Z,10.65
2017-04-04T00:08:33.942Z,10.7
2017-04-04T00:08:38.020Z,10.7
2017-04-04T00:08:42.218Z,10.7
2017-04-04T00:08:46.645Z,10.7
2017-04-04T00:08:50.839Z,10.7
2017-04-04T00:08:55.269Z,10.75
2017-04-04T00:08:59.585Z,10.7
2017-04-04T00:09:04.018Z,10.69
2017-04-04T00:09:08.502Z,10.68
2017-04-04T00:09:12.926Z,10.7
2017-04-04T00:09:17.242Z,10.73
2017-04-04T00:09:21.670Z,10.69
2017-04-04T00:09:26.001Z,10.72
2017-04-04T00:09:30.309Z,10.75
2017-04-04T00:09:34.731Z,10.75
2017-04-04T00:09:39.157Z,10.7
2017-04-04T00:09:43.508Z,10.75
2017-04-04T00:09:47.831Z,10.72
2017-04-04T00:09:51.909Z,10.7
2017-04-04T00:09:56.332Z,10.7
2017-04-04T00:10:00.537Z,10.66
2017-04-04T00:10:05.011Z,10.7
2017-04-04T00:10:09.450Z,10.66
2017-04-04T00:10:13.772Z,10.75
2017-04-04T00:10:18.085Z,10.7
2017-04-04T00:10:22.402Z,10.76
2017-04-04T00:10:26.715Z,10.7
2017-04-04T00:10:30.913Z,10.69
2017-04-04T00:10:34.992Z,10.7
2017-04-04T00:10:39.313Z,10.68
2017-04-04T00:10:43.744Z,10.68
2017-04-04T00:10:48.069Z,10.69
2017-04-04T00:10:52.271Z,10.68
2017-04-04T00:10:56.582Z,10.68
2017-04-04T00:11:00.776Z,10.7
2017-04-04T00:11:05.092Z,10.69
2017-04-04T00:11:09.451Z,10.73
2017-04-04T00:11:13.651Z,10.69
2017-04-04T00:11:17.963Z,10.68
2017-04-04T00:11:22.397Z,10.68
2017-04-04T00:11:26.824Z,10.66
2017-04-04T00:11:31.135Z,10.65
2017-04-04T00:11:35.562Z,10.6
2017-04-04T00:11:39.872Z,10.65
2017-04-04T00:11:44.298Z,10.63
2017-04-04T00:11:48.734Z,10.68
2017-04-04T00:11:53.198Z,10.66
2017-04-04T00:11:57.622Z,10.7
2017-04-04T00:12:02.048Z,10.68
2017-04-04T00:12:06.479Z,10.66
2017-04-04T00:12:10.943Z,10.65
2017-04-04T00:12:15.367Z,10.65
2017-04-04T00:12:19.676Z,10.66
2017-04-04T00:12:24.104Z,10.68
2017-04-04T00:12:28.417Z,10.62
2017-04-04T00:12:32.843Z,10.66
2017-04-04T00:12:37.152Z,10.63
2017-04-04T00:12:41.504Z,10.63
2017-04-04T00:12:45.927Z,10.7
2017-04-04T00:12:50.365Z,10.68
2017-04-04T00:12:54.787Z,10.62
2017-04-04T00:12:59.211Z,10.6
2017-04-04T00:13:03.651Z,10.63
2017-04-04T00:13:07.839Z,10.63
2017-04-04T00:13:12.286Z,10.58
2017-04-04T00:13:16.588Z,10.58
2017-04-04T00:13:21.016Z,10.65
2017-04-04T00:13:25.439Z,10.6
2017-04-04T00:13:29.863Z,10.62
2017-04-04T00:13:34.298Z,10.68
2017-04-04T00:13:38.739Z,10.63
2017-04-04T00:13:43.166Z,10.62
2017-04-04T00:13:47.584Z,10.68
2017-04-04T00:13:52.028Z,10.6
2017-04-04T00:13:56.472Z,10.68
2017-04-04T00:14:00.894Z,10.69
2017-04-04T00:14:05.196Z,10.65
2017-04-04T00:14:09.508Z,10.69
2017-04-04T00:14:13.934Z,10.7
2017-04-04T00:14:18.354Z,10.68
2017-04-04T00:14:22.772Z,10.66
2017-04-04T00:14:26.964Z,10.7
2017-04-04T00:14:31.392Z,10.69
2017-04-04T00:14:35.699Z,10.66
2017-04-04T00:14:40.012Z,10.7
2017-04-04T00:14:44.440Z,10.68
2017-04-04T00:14:48.757Z,10.68
2017-04-04T00:14:53.227Z,10.7
2017-04-04T00:14:57.537Z,10.72
2017-04-04T00:15:02.062Z,10.68
2017-04-04T00:15:06.372Z,10.65
2017-04-04T00:15:10.717Z,10.7
2017-04-04T00:15:15.141Z,10.68
2017-04-04T00:15:19.214Z,10.7
2017-04-04T00:15:23.647Z,10.7
2017-04-04T00:15:28.117Z,10.69
2017-04-04T00:15:32.307Z,10.65
2017-04-04T00:15:36.619Z,10.66
2017-04-04T00:15:41.048Z,10.72
2017-04-04T00:15:45.471Z,10.76
2017-04-04T00:15:49.777Z,10.73
2017-04-04T00:15:54.252Z,10.68
2017-04-04T00:15:58.678Z,10.72
2017-04-04T00:16:03.360Z,10.75
2017-04-04T00:16:07.549Z,10.73
2017-04-04T00:16:11.860Z,10.76
2017-04-04T00:16:16.166Z,10.7
2017-04-04T00:16:20.595Z,10.72
2017-04-04T00:16:25.020Z,10.75
2017-04-04T00:16:29.331Z,10.72
2017-04-04T00:16:33.681Z,10.76
2017-04-04T00:16:37.755Z,10.76
2017-04-04T00:16:42.186Z,10.7
2017-04-04T00:16:46.541Z,10.75
2017-04-04T00:16:50.965Z,10.76
2017-04-04T00:16:55.392Z,10.81
2017-04-04T00:16:59.862Z,10.66
2017-04-04T00:17:04.292Z,10.76
2017-04-04T00:17:08.599Z,10.75
2017-04-04T00:17:13.026Z,10.78
2017-04-04T00:17:17.456Z,10.76
2017-04-04T00:17:21.882Z,10.73
2017-04-04T00:17:26.072Z,10.78
2017-04-04T00:17:30.499Z,10.8
2017-04-04T00:17:34.926Z,10.78
2017-04-04T00:17:39.350Z,10.84
2017-04-04T00:17:43.772Z,10.7
2017-04-04T00:17:48.194Z,10.72
2017-04-04T00:17:52.621Z,10.84
2017-04-04T00:17:56.926Z,10.76
2017-04-04T00:18:01.357Z,10.75
2017-04-04T00:18:05.888Z,10.84
2017-04-04T00:18:10.249Z,10.72
2017-04-04T00:18:14.550Z,10.73
2017-04-04T00:18:18.861Z,10.7
2017-04-04T00:18:23.055Z,10.72
2017-04-04T00:18:27.239Z,10.75
2017-04-04T00:18:31.541Z,10.78
2017-04-04T00:18:35.858Z,10.73
2017-04-04T00:18:40.287Z,10.73
2017-04-04T00:18:44.712Z,10.83
2017-04-04T00:18:49.132Z,10.75
2017-04-04T00:18:53.579Z,10.72
2017-04-04T00:18:57.928Z,10.72
2017-04-04T00:19:02.609Z,10.75
2017-04-04T00:19:06.914Z,10.72
2017-04-04T00:19:11.340Z,10.73
2017-04-04T00:19:15.800Z,10.75
2017-04-04T00:19:19.991Z,10.7
2017-04-04T00:19:24.416Z,10.78
2017-04-04T00:19:28.730Z,10.76
2017-04-04T00:19:33.154Z,10.72
2017-04-04T00:19:37.575Z,10.81
2017-04-04T00:19:42.001Z,10.75
2017-04-04T00:19:46.430Z,10.69
2017-04-04T00:19:50.859Z,10.75
2017-04-04T00:19:55.291Z,10.75
2017-04-04T00:19:59.605Z,10.75
2017-04-04T00:20:04.074Z,10.75
2017-04-04T00:20:08.385Z,10.73
2017-04-04T00:20:12.578Z,10.76
2017-04-04T00:20:17.005Z,10.8
2017-04-04T00:20:21.439Z,10.8
2017-04-04T00:20:25.865Z,10.75
2017-04-04T00:20:30.290Z,10.72
2017-04-04T00:20:34.730Z,10.78
2017-04-04T00:20:39.166Z,10.84
2017-04-04T00:20:43.586Z,10.78
2017-04-04T00:20:47.890Z,10.75
2017-04-04T00:20:52.315Z,10.78
2017-04-04T00:20:56.745Z,10.8
2017-04-04T00:21:01.057Z,10.8
2017-04-04T00:21:05.735Z,10.76
2017-04-04T00:21:10.048Z,10.78
2017-04-04T00:21:14.481Z,10.81
2017-04-04T00:21:18.711Z,10.84
2017-04-04T00:21:23.134Z,10.8
2017-04-04T00:21:27.563Z,10.83
2017-04-04T00:21:32.038Z,10.78
2017-04-04T00:21:36.464Z,10.8
2017-04-04T00:21:40.891Z,10.86
2017-04-04T00:21:45.250Z,10.8
2017-04-04T00:21:49.674Z,10.83
2017-04-04T00:21:54.095Z,10.78
2017-04-04T00:21:58.528Z,10.8
2017-04-04T00:22:02.956Z,10.78
2017-04-04T00:22:07.151Z,10.8
2017-04-04T00:22:11.573Z,10.8
2017-04-04T00:22:16.002Z,10.81
2017-04-04T00:22:20.195Z,10.83
2017-04-04T00:22:24.622Z,10.81
2017-04-04T00:22:29.061Z,10.83
2017-04-04T00:22:33.301Z,10.83
2017-04-04T00:22:37.722Z,10.81
2017-04-04T00:22:42.150Z,10.83
2017-04-04T00:22:46.610Z,10.81
2017-04-04T00:22:51.030Z,10.84
2017-04-04T00:22:55.341Z,10.8
2017-04-04T00:22:59.767Z,10.8
2017-04-04T00:23:04.426Z,10.83
2017-04-04T00:23:08.851Z,10.84
2017-04-04T00:23:13.156Z,10.8
2017-04-04T00:23:17.581Z,10.81
2017-04-04T00:23:22.010Z,10.83
2017-04-04T00:23:26.431Z,10.81
2017-04-04T00:23:30.734Z,10.83
2017-04-04T00:23:35.211Z,10.8
2017-04-04T00:23:39.636Z,10.83
2017-04-04T00:23:44.062Z,10.81
2017-04-04T00:23:48.422Z,10.81
2017-04-04T00:23:52.858Z,10.83
2017-04-04T00:23:57.049Z,10.81
2017-04-04T00:24:01.489Z,10.81
2017-04-04T00:24:05.920Z,10.83
2017-04-04T00:24:10.338Z,10.75
2017-04-04T00:24:14.525Z,10.83
2017-04-04T00:24:18.954Z,10.81
2017-04-04T00:24:23.374Z,10.83
2017-04-04T00:24:27.806Z,10.76
2017-04-04T00:24:32.230Z,10.81
2017-04-04T00:24:36.658Z,10.81
2017-04-04T00:24:41.085Z,10.83
2017-04-04T00:24:45.506Z,10.81
2017-04-04T00:24:49.931Z,10.81
2017-04-04T00:24:54.409Z,10.83
2017-04-04T00:24:58.831Z,10.84
2017-04-04T00:25:03.458Z,10.81
2017-04-04T00:25:07.905Z,10.8
2017-04-04T00:25:12.212Z,10.83
2017-04-04T00:25:16.638Z,10.84
2017-04-04T00:25:20.951Z,10.84
2017-04-04T00:25:25.381Z,10.81
2017-04-04T00:25:29.807Z,10.86
2017-04-04T00:25:34.243Z,10.78
2017-04-04T00:25:38.671Z,10.83
2017-04-04T00:25:43.098Z,10.83
2017-04-04T00:25:47.404Z,10.83
2017-04-04T00:25:51.831Z,10.86
2017-04-04T00:25:56.261Z,10.83
2017-04-04T00:26:00.691Z,10.84
2017-04-04T00:26:05.117Z,10.83
2017-04-04T00:26:09.088Z,10.81
2017-04-04T00:26:13.401Z,10.86
2017-04-04T00:26:17.587Z,10.83
2017-04-04T00:26:21.897Z,10.81
2017-04-04T00:26:26.365Z,10.8
2017-04-04T00:26:30.790Z,10.81
2017-04-04T00:26:35.102Z,10.78
2017-04-04T00:26:39.525Z,10.83
2017-04-04T00:26:43.948Z,10.84
2017-04-04T00:26:48.378Z,10.81
2017-04-04T00:26:52.800Z,10.83
2017-04-04T00:26:57.226Z,10.84
2017-04-04T00:27:01.532Z,10.83
2017-04-04T00:27:06.112Z,10.8
2017-04-04T00:27:10.417Z,10.83
2017-04-04T00:27:14.837Z,10.81
2017-04-04T00:27:19.266Z,10.81
2017-04-04T00:27:23.696Z,10.83
2017-04-04T00:27:28.001Z,10.86
2017-04-04T00:27:32.309Z,10.78
2017-04-04T00:27:36.629Z,10.83
2017-04-04T00:27:41.047Z,10.83
2017-04-04T00:27:45.471Z,10.84
2017-04-04T00:27:49.901Z,10.8
2017-04-04T00:27:54.324Z,10.84
2017-04-04T00:27:58.627Z,10.83
2017-04-04T00:28:02.942Z,10.81
2017-04-04T00:28:07.267Z,10.8
2017-04-04T00:28:11.690Z,10.87
2017-04-04T00:28:15.994Z,10.83
2017-04-04T00:28:20.193Z,10.84
2017-04-04T00:28:24.618Z,10.83
2017-04-04T00:28:28.921Z,10.81
2017-04-04T00:28:33.343Z,10.88
2017-04-04T00:28:37.766Z,10.84
2017-04-04T00:28:42.072Z,10.81
2017-04-04T00:28:46.497Z,10.8
2017-04-04T00:28:50.975Z,10.76
2017-04-04T00:28:55.399Z,10.87
2017-04-04T00:28:59.830Z,10.88
2017-04-04T00:29:04.300Z,10.83
2017-04-04T00:29:08.729Z,10.84
2017-04-04T00:29:13.039Z,10.78
2017-04-04T00:29:17.345Z,10.8
2017-04-04T00:29:21.777Z,10.81
2017-04-04T00:29:26.085Z,10.83
2017-04-04T00:29:30.508Z,10.81
2017-04-04T00:29:34.827Z,10.83
2017-04-04T00:29:39.268Z,10.87
2017-04-04T00:29:43.700Z,10.83
2017-04-04T00:29:48.125Z,10.83
2017-04-04T00:29:52.555Z,10.83
2017-04-04T00:29:56.740Z,10.83
2017-04-04T00:30:01.165Z,10.83
2017-04-04T00:30:05.851Z,10.8
2017-04-04T00:30:10.162Z,10.83
2017-04-04T00:30:14.467Z,10.83
2017-04-04T00:30:18.892Z,10.83
2017-04-04T00:30:23.325Z,10.81
2017-04-04T00:30:27.763Z,10.84
2017-04-04T00:30:32.182Z,10.81
2017-04-04T00:30:36.610Z,10.72
2017-04-04T00:30:41.045Z,10.84
2017-04-04T00:30:45.480Z,10.88
2017-04-04T00:30:49.908Z,10.86
2017-04-04T00:30:54.341Z,10.81
2017-04-04T00:30:58.531Z,10.81
2017-04-04T00:31:03.259Z,10.83
2017-04-04T00:31:07.570Z,10.84
2017-04-04T00:31:12.000Z,10.83
2017-04-04T00:31:16.310Z,10.86
2017-04-04T00:31:20.731Z,10.87
2017-04-04T00:31:24.918Z,10.83
2017-04-04T00:31:29.354Z,10.87
2017-04-04T00:31:33.778Z,10.84
2017-04-04T00:31:38.202Z,10.76
2017-04-04T00:31:42.410Z,10.83
2017-04-04T00:31:46.763Z,10.83
2017-04-04T00:31:50.950Z,10.86
2017-04-04T00:31:55.396Z,10.8
2017-04-04T00:31:59.821Z,10.81
2017-04-04T00:32:04.395Z,10.81
2017-04-04T00:32:08.700Z,10.83
2017-04-04T00:32:13.127Z,10.86
2017-04-04T00:32:17.549Z,10.81
2017-04-04T00:32:21.977Z,10.88
2017-04-04T00:32:26.287Z,10.83
2017-04-04T00:32:30.596Z,10.81
2017-04-04T00:32:35.026Z,10.78
2017-04-04T00:32:39.453Z,10.84
2017-04-04T00:32:43.874Z,10.83
2017-04-04T00:32:48.232Z,10.83
2017-04-04T00:32:52.661Z,10.81
2017-04-04T00:32:57.084Z,10.76
2017-04-04T00:33:01.517Z,10.84
2017-04-04T00:33:06.133Z,10.8
2017-04-04T00:33:10.440Z,10.84
2017-04-04T00:33:14.865Z,10.81
2017-04-04T00:33:19.185Z,10.86
2017-04-04T00:33:23.612Z,10.8
2017-04-04T00:33:28.038Z,10.84
2017-04-04T00:33:32.462Z,10.78
2017-04-04T00:33:36.882Z,10.83
2017-04-04T00:33:41.188Z,10.8
2017-04-04T00:33:45.616Z,10.81
2017-04-04T00:33:49.975Z,10.83
2017-04-04T00:33:54.410Z,10.8
2017-04-04T00:33:58.831Z,10.84
2017-04-04T00:34:03.257Z,10.83
2017-04-04T00:34:07.567Z,10.78
2017-04-04T00:34:11.870Z,10.84
2017-04-04T00:34:16.310Z,10.81
2017-04-04T00:34:20.621Z,10.8
2017-04-04T00:34:25.042Z,10.8
2017-04-04T00:34:29.356Z,10.83
2017-04-04T00:34:33.780Z,10.8
2017-04-04T00:34:38.199Z,10.81
2017-04-04T00:34:42.502Z,10.81
2017-04-04T00:34:46.811Z,10.83
2017-04-04T00:34:51.118Z,10.81
2017-04-04T00:34:55.545Z,10.81
2017-04-04T00:34:59.965Z,10.83
2017-04-04T00:35:04.390Z,10.81
2017-04-04T00:35:08.826Z,10.78
2017-04-04T00:35:13.012Z,10.83
2017-04-04T00:35:17.317Z,10.83
2017-04-04T00:35:21.634Z,10.76
2017-04-04T00:35:25.944Z,10.86
2017-04-04T00:35:30.253Z,10.83
2017-04-04T00:35:34.682Z,10.76
2017-04-04T00:35:39.108Z,10.8
2017-04-04T00:35:43.192Z,10.78
2017-04-04T00:35:47.628Z,10.8
2017-04-04T00:35:52.070Z,10.8
2017-04-04T00:35:56.496Z,10.8
2017-04-04T00:36:00.923Z,10.8
2017-04-04T00:36:05.454Z,10.7
2017-04-04T00:36:09.651Z,10.83
2017-04-04T00:36:14.075Z,10.73
2017-04-04T00:36:18.503Z,10.8
2017-04-04T00:36:22.944Z,10.76
2017-04-04T00:36:27.253Z,10.83
2017-04-04T00:36:31.561Z,10.73
2017-04-04T00:36:35.868Z,10.83
2017-04-04T00:36:40.299Z,10.78
2017-04-04T00:36:44.610Z,10.83
2017-04-04T00:36:49.033Z,10.72
2017-04-04T00:36:53.345Z,10.75
2017-04-04T00:36:57.765Z,10.76
2017-04-04T00:37:02.490Z,10.78
2017-04-04T00:37:06.793Z,10.72
2017-04-04T00:37:11.229Z,10.73
2017-04-04T00:37:15.536Z,10.8
2017-04-04T00:37:19.725Z,10.7
2017-04-04T00:37:24.154Z,10.75
2017-04-04T00:37:28.466Z,10.75
2017-04-04T00:37:32.889Z,10.73
2017-04-04T00:37:37.078Z,10.78
2017-04-04T00:37:41.504Z,10.69
2017-04-04T00:37:45.813Z,10.84
2017-04-04T00:37:50.233Z,10.68
2017-04-04T00:37:54.658Z,10.8
2017-04-04T00:37:59.086Z,10.76
2017-04-04T00:38:03.864Z,10.84
2017-04-04T00:38:08.168Z,10.76
2017-04-04T00:38:12.642Z,10.8
2017-04-04T00:38:16.953Z,10.7
2017-04-04T00:38:21.380Z,10.72
2017-04-04T00:38:25.685Z,10.84
2017-04-04T00:38:30.107Z,10.7
2017-04-04T00:38:34.531Z,10.76
2017-04-04T00:38:38.833Z,10.7
2017-04-04T00:38:43.143Z,10.7
2017-04-04T00:38:47.574Z,10.72
2017-04-04T00:38:51.878Z,10.68
2017-04-04T00:38:56.184Z,10.7
2017-04-04T00:39:00.613Z,10.72
2017-04-04T00:39:05.288Z,10.72
2017-04-04T00:39:09.716Z,10.66
2017-04-04T00:39:14.141Z,10.7
2017-04-04T00:39:18.491Z,10.69
2017-04-04T00:39:22.920Z,10.7
2017-04-04T00:39:27.347Z,10.66
2017-04-04T00:39:31.542Z,10.66
2017-04-04T00:39:35.971Z,10.63
2017-04-04T00:39:40.277Z,10.72
2017-04-04T00:39:44.702Z,10.69
2017-04-04T00:39:49.127Z,10.68
2017-04-04T00:39:53.575Z,10.69
2017-04-04T00:39:58.002Z,10.72
2017-04-04T00:40:02.631Z,10.69
2017-04-04T00:40:06.818Z,10.62
2017-04-04T00:40:11.129Z,10.65
2017-04-04T00:40:15.553Z,10.65
2017-04-04T00:40:19.747Z,10.69
2017-04-04T00:40:24.052Z,10.66
2017-04-04T00:40:28.481Z,10.63
2017-04-04T00:40:32.908Z,10.62
2017-04-04T00:40:37.331Z,10.62
2017-04-04T00:40:41.757Z,10.62
2017-04-04T00:40:46.192Z,10.58
2017-04-04T00:40:50.660Z,10.68
2017-04-04T00:40:55.093Z,10.6
2017-04-04T00:40:59.518Z,10.62
2017-04-04T00:41:03.838Z,10.62
2017-04-04T00:41:08.147Z,10.65
2017-04-04T00:41:12.566Z,10.6
2017-04-04T00:41:16.887Z,10.6
2017-04-04T00:41:21.196Z,10.58
2017-04-04T00:41:25.623Z,10.55
2017-04-04T00:41:30.050Z,10.6
2017-04-04T00:41:34.406Z,10.54
2017-04-04T00:41:38.839Z,10.6
2017-04-04T00:41:43.261Z,10.58
2017-04-04T00:41:47.684Z,10.66
2017-04-04T00:41:52.008Z,10.55
2017-04-04T00:41:56.358Z,10.63
2017-04-04T00:42:00.670Z,10.54
2017-04-04T00:42:05.410Z,10.68
2017-04-04T00:42:09.846Z,10.58
2017-04-04T00:42:14.266Z,10.66
2017-04-04T00:42:18.582Z,10.57
2017-04-04T00:42:22.814Z,10.6
2017-04-04T00:42:27.242Z,10.6
2017-04-04T00:42:31.467Z,10.62
2017-04-04T00:42:35.783Z,10.65
2017-04-04T00:42:40.216Z,10.6
2017-04-04T00:42:44.643Z,10.6
2017-04-04T00:42:49.080Z,10.54
2017-04-04T00:42:53.512Z,10.55
2017-04-04T00:42:57.821Z,10.52
2017-04-04T00:43:02.495Z,10.6
2017-04-04T00:43:06.918Z,10.52
2017-04-04T00:43:11.343Z,10.51
2017-04-04T00:43:15.654Z,10.49
2017-04-04T00:43:19.966Z,10.54
2017-04-04T00:43:24.267Z,10.52
2017-04-04T00:43:28.573Z,10.46
2017-04-04T00:43:32.886Z,10.47
2017-04-04T00:43:37.314Z,10.54
2017-04-04T00:43:41.738Z,10.55
2017-04-04T00:43:46.168Z,10.54
2017-04-04T00:43:50.589Z,10.49
2017-04-04T00:43:54.917Z,10.51
2017-04-04T00:43:59.223Z,10.57
2017-04-04T00:44:03.633Z,10.51
2017-04-04T00:44:07.821Z,10.49
2017-04-04T00:44:12.252Z,10.54
2017-04-04T00:44:16.575Z,10.54
2017-04-04T00:44:21.036Z,10.51
2017-04-04T00:44:25.456Z,10.55
2017-04-04T00:44:29.880Z,10.55
2017-04-04T00:44:34.212Z,10.54
2017-04-04T00:44:38.517Z,10.46
2017-04-04T00:44:42.940Z,10.43
2017-04-04T00:44:47.261Z,10.42
2017-04-04T00:44:51.687Z,10.51
2017-04-04T00:44:56.105Z,10.42
2017-04-04T00:45:00.535Z,10.49
2017-04-04T00:45:04.998Z,10.51
2017-04-04T00:45:09.305Z,10.51
2017-04-04T00:45:13.496Z,10.46
2017-04-04T00:45:17.803Z,10.46
2017-04-04T00:45:22.119Z,10.42
2017-04-04T00:45:26.303Z,10.49
2017-04-04T00:45:30.727Z,10.46
2017-04-04T00:45:35.159Z,10.42
2017-04-04T00:45:39.588Z,10.47
2017-04-04T00:45:43.936Z,10.46
2017-04-04T00:45:48.359Z,10.46
2017-04-04T00:45:52.665Z,10.47
2017-04-04T00:45:56.980Z,10.46
2017-04-04T00:46:01.409Z,10.43
2017-04-04T00:46:05.866Z,10.46
2017-04-04T00:46:10.295Z,10.46
2017-04-04T00:46:14.612Z,10.54
2017-04-04T00:46:18.924Z,10.46
2017-04-04T00:46:23.348Z,10.46
2017-04-04T00:46:27.656Z,10.46
2017-04-04T00:46:32.090Z,10.47
2017-04-04T00:46:36.558Z,10.39
2017-04-04T00:46:40.978Z,10.43
2017-04-04T00:46:45.403Z,10.39
2017-04-04T00:46:49.882Z,10.47
2017-04-04T00:46:54.321Z,10.43
2017-04-04T00:46:58.748Z,10.47
2017-04-04T00:47:03.226Z,10.43
2017-04-04T00:47:07.534Z,10.43
2017-04-04T00:47:11.857Z,10.43
2017-04-04T00:47:16.316Z,10.34
2017-04-04T00:47:20.558Z,10.43
2017-04-04T00:47:24.992Z,10.44
2017-04-04T00:47:29.413Z,10.42
2017-04-04T00:47:33.843Z,10.42
2017-04-04T00:47:38.074Z,10.43
2017-04-04T00:47:42.497Z,10.39
2017-04-04T00:47:46.927Z,10.35
2017-04-04T00:47:51.351Z,10.36
2017-04-04T00:47:55.778Z,10.35
2017-04-04T00:48:00.201Z,10.31
2017-04-04T00:48:04.625Z,10.38
2017-04-04T00:48:08.935Z,10.36
2017-04-04T00:48:13.365Z,10.29
2017-04-04T00:48:17.671Z,10.42
2017-04-04T00:48:21.974Z,10.34
2017-04-04T00:48:26.401Z,10.38
2017-04-04T00:48:30.822Z,10.39
2017-04-04T00:48:35.242Z,10.36
2017-04-04T00:48:39.660Z,10.34
2017-04-04T00:48:44.088Z,10.26
2017-04-04T00:48:48.554Z,10.38
2017-04-04T00:48:52.987Z,10.38
2017-04-04T00:48:57.416Z,10.35
2017-04-04T00:49:01.842Z,10.36
2017-04-04T00:49:06.256Z,10.36
2017-04-04T00:49:10.682Z,10.26
2017-04-04T00:49:15.103Z,10.34
2017-04-04T00:49:19.299Z,10.29
2017-04-04T00:49:23.730Z,10.32
2017-04-04T00:49:28.041Z,10.36
2017-04-04T00:49:32.470Z,10.36
2017-04-04T00:49:36.707Z,10.29
2017-04-04T00:49:41.138Z,10.31
2017-04-04T00:49:45.563Z,10.39
2017-04-04T00:49:50.005Z,10.35
2017-04-04T00:49:54.312Z,10.32
2017-04-04T00:49:58.733Z,10.29
2017-04-04T00:50:03.160Z,10.34
2017-04-04T00:50:07.487Z,10.36
2017-04-04T00:50:11.800Z,10.29
2017-04-04T00:50:16.108Z,10.32
2017-04-04T00:50:20.423Z,10.2
2017-04-04T00:50:24.846Z,10.32
2017-04-04T00:50:29.267Z,10.34
2017-04-04T00:50:33.690Z,10.29
2017-04-04T00:50:38.110Z,10.31
2017-04-04T00:50:42.543Z,10.26
2017-04-04T00:50:46.969Z,10.32
2017-04-04T00:50:51.399Z,10.28
2017-04-04T00:50:55.826Z,10.29
2017-04-04T00:51:00.016Z,10.28
2017-04-04T00:51:04.330Z,10.35
2017-04-04T00:51:08.760Z,10.28
2017-04-04T00:51:13.065Z,10.31
2017-04-04T00:51:17.384Z,10.32
2017-04-04T00:51:21.812Z,10.26
2017-04-04T00:51:26.117Z,10.26
2017-04-04T00:51:30.549Z,10.26
2017-04-04T00:51:34.904Z,10.29
2017-04-04T00:51:39.214Z,10.32
2017-04-04T00:51:43.524Z,10.34
2017-04-04T00:51:47.875Z,10.32
2017-04-04T00:51:52.300Z,10.32
2017-04-04T00:51:56.727Z,10.24
2017-04-04T00:52:00.808Z,10.24
2017-04-04T00:52:05.238Z,10.29
2017-04-04T00:52:09.431Z,10.26
2017-04-04T00:52:13.856Z,10.29
2017-04-04T00:52:18.175Z,10.26
2017-04-04T00:52:22.598Z,10.26
2017-04-04T00:52:26.902Z,10.31
2017-04-04T00:52:31.329Z,10.32
2017-04-04T00:52:35.758Z,10.28
2017-04-04T00:52:40.184Z,10.24
2017-04-04T00:52:44.607Z,10.32
2017-04-04T00:52:49.029Z,10.34
2017-04-04T00:52:53.378Z,10.29
2017-04-04T00:52:57.797Z,10.31
2017-04-04T00:53:02.426Z,10.25
2017-04-04T00:53:06.853Z,10.32
2017-04-04T00:53:11.279Z,10.29
2017-04-04T00:53:15.584Z,10.28
2017-04-04T00:53:19.897Z,10.26
2017-04-04T00:53:24.333Z,10.29
2017-04-04T00:53:28.751Z,10.28
2017-04-04T00:53:33.173Z,10.29
2017-04-04T00:53:37.487Z,10.28
2017-04-04T00:53:41.796Z,10.26
2017-04-04T00:53:46.229Z,10.31
2017-04-04T00:53:50.655Z,10.26
2017-04-04T00:53:55.090Z,10.28
2017-04-04T00:53:59.516Z,10.26
2017-04-04T00:54:04.008Z,10.31
2017-04-04T00:54:08.438Z,10.28
2017-04-04T00:54:12.864Z,10.28
2017-04-04T00:54:17.288Z,10.26
2017-04-04T00:54:21.603Z,10.26
2017-04-04T00:54:26.033Z,10.25
2017-04-04T00:54:30.455Z,10.28
2017-04-04T00:54:34.876Z,10.29
2017-04-04T00:54:39.305Z,10.28
2017-04-04T00:54:43.660Z,10.34
2017-04-04T00:54:48.093Z,10.32
2017-04-04T00:54:52.514Z,10.34
2017-04-04T00:54:56.864Z,10.24
2017-04-04T00:55:01.292Z,10.2
2017-04-04T00:55:05.719Z,10.25
2017-04-04T00:55:10.147Z,10.2
2017-04-04T00:55:14.460Z,10.26
2017-04-04T00:55:18.931Z,10.22
2017-04-04T00:55:23.127Z,10.22
2017-04-04T00:55:27.553Z,10.22
2017-04-04T00:55:31.981Z,10.22
2017-04-04T00:55:36.414Z,10.32
2017-04-04T00:55:40.835Z,10.28
2017-04-04T00:55:45.140Z,10.22
2017-04-04T00:55:49.579Z,10.31
2017-04-04T00:55:54.056Z,10.32
2017-04-04T00:55:58.241Z,10.25
2017-04-04T00:56:02.666Z,10.22
2017-04-04T00:56:06.977Z,10.18
2017-04-04T00:56:11.170Z,10.26
2017-04-04T00:56:15.596Z,10.2
2017-04-04T00:56:19.786Z,10.29
2017-04-04T00:56:24.212Z,10.25
2017-04-04T00:56:28.684Z,10.28
2017-04-04T00:56:33.113Z,10.26
2017-04-04T00:56:37.419Z,10.29
2017-04-04T00:56:41.838Z,10.29